sensor_id;sensor_type;location;lat;lon;timestamp;P1;durP1;ratioP1;P2;durP2;ratioP2
1000;SDS011;489;47.806;12.858;2024-02-28T00:01:29;18.03;;;13.50;;
1000;SDS011;489;47.806;12.858;2024-02-28T00:03:30;21.33;;;13.87;;
1000;SDS011;489;47.806;12.858;2024-02-28T00:05:33;19.77;;;13.80;;
1000;SDS011;489;47.806;12.858;2024-02-28T00:07:36;20.67;;;12.70;;
1000;SDS011;489;47.806;12.858;2024-02-28T00:09:38;20.20;;;13.60;;
1000;SDS011;489;47.806;12.858;2024-02-28T00:11:42;22.07;;;14.57;;
1000;SDS011;489;47.806;12.858;2024-02-28T00:13:44;21.10;;;13.80;;
1000;SDS011;489;47.806;12.858;2024-02-28T00:15:46;20.57;;;14.40;;
1000;SDS011;489;47.806;12.858;2024-02-28T00:17:51;20.27;;;12.77;;
1000;SDS011;489;47.806;12.858;2024-02-28T00:19:53;19.20;;;12.93;;
1000;SDS011;489;47.806;12.858;2024-02-28T00:21:54;23.13;;;13.70;;
1000;SDS011;489;47.806;12.858;2024-02-28T00:23:57;17.30;;;13.13;;
1000;SDS011;489;47.806;12.858;2024-02-28T00:25:58;19.17;;;13.27;;
1000;SDS011;489;47.806;12.858;2024-02-28T00:28:02;21.70;;;14.10;;
1000;SDS011;489;47.806;12.858;2024-02-28T00:30:04;19.60;;;13.10;;
1000;SDS011;489;47.806;12.858;2024-02-28T00:32:06;21.20;;;15.20;;
1000;SDS011;489;47.806;12.858;2024-02-28T00:34:08;23.87;;;14.97;;
1000;SDS011;489;47.806;12.858;2024-02-28T00:36:10;24.43;;;14.50;;
1000;SDS011;489;47.806;12.858;2024-02-28T00:38:12;22.90;;;14.53;;
1000;SDS011;489;47.806;12.858;2024-02-28T00:40:15;22.03;;;15.50;;
1000;SDS011;489;47.806;12.858;2024-02-28T00:42:16;24.00;;;14.57;;
1000;SDS011;489;47.806;12.858;2024-02-28T00:44:18;22.00;;;14.03;;
1000;SDS011;489;47.806;12.858;2024-02-28T00:46:20;22.83;;;13.83;;
1000;SDS011;489;47.806;12.858;2024-02-28T00:48:22;24.00;;;14.60;;
1000;SDS011;489;47.806;12.858;2024-02-28T00:50:23;23.60;;;14.33;;
1000;SDS011;489;47.806;12.858;2024-02-28T00:52:25;23.30;;;15.20;;
1000;SDS011;489;47.806;12.858;2024-02-28T00:54:27;21.90;;;13.77;;
1000;SDS011;489;47.806;12.858;2024-02-28T00:56:30;22.13;;;15.10;;
1000;SDS011;489;47.806;12.858;2024-02-28T00:58:32;25.30;;;14.93;;
1000;SDS011;489;47.806;12.858;2024-02-28T01:00:52;19.63;;;13.33;;
1000;SDS011;489;47.806;12.858;2024-02-28T01:02:54;21.93;;;14.67;;
1000;SDS011;489;47.806;12.858;2024-02-28T01:04:56;24.10;;;15.00;;
1000;SDS011;489;47.806;12.858;2024-02-28T01:06:57;19.70;;;13.80;;
1000;SDS011;489;47.806;12.858;2024-02-28T01:08:59;22.90;;;14.77;;
1000;SDS011;489;47.806;12.858;2024-02-28T01:11:01;20.57;;;13.60;;
1000;SDS011;489;47.806;12.858;2024-02-28T01:13:04;19.90;;;13.57;;
1000;SDS011;489;47.806;12.858;2024-02-28T01:15:06;20.73;;;14.50;;
1000;SDS011;489;47.806;12.858;2024-02-28T01:17:08;21.67;;;13.70;;
1000;SDS011;489;47.806;12.858;2024-02-28T01:19:09;20.37;;;13.07;;
1000;SDS011;489;47.806;12.858;2024-02-28T01:21:11;21.60;;;14.17;;
1000;SDS011;489;47.806;12.858;2024-02-28T01:23:13;25.10;;;15.33;;
1000;SDS011;489;47.806;12.858;2024-02-28T01:25:15;21.80;;;14.47;;
1000;SDS011;489;47.806;12.858;2024-02-28T01:27:18;18.83;;;13.73;;
1000;SDS011;489;47.806;12.858;2024-02-28T01:29:21;19.77;;;13.53;;
1000;SDS011;489;47.806;12.858;2024-02-28T01:31:24;21.43;;;13.43;;
1000;SDS011;489;47.806;12.858;2024-02-28T01:33:25;21.13;;;12.90;;
1000;SDS011;489;47.806;12.858;2024-02-28T01:35:27;18.80;;;13.40;;
1000;SDS011;489;47.806;12.858;2024-02-28T01:37:28;24.00;;;13.93;;
1000;SDS011;489;47.806;12.858;2024-02-28T01:39:29;20.57;;;12.53;;
1000;SDS011;489;47.806;12.858;2024-02-28T01:41:31;21.87;;;14.40;;
1000;SDS011;489;47.806;12.858;2024-02-28T01:43:32;21.80;;;13.07;;
1000;SDS011;489;47.806;12.858;2024-02-28T01:45:35;17.87;;;12.50;;
1000;SDS011;489;47.806;12.858;2024-02-28T01:47:37;19.00;;;13.53;;
1000;SDS011;489;47.806;12.858;2024-02-28T01:49:39;20.33;;;14.67;;
1000;SDS011;489;47.806;12.858;2024-02-28T01:51:41;22.07;;;14.13;;
1000;SDS011;489;47.806;12.858;2024-02-28T01:53:43;21.50;;;13.30;;
1000;SDS011;489;47.806;12.858;2024-02-28T01:55:46;20.10;;;13.40;;
1000;SDS011;489;47.806;12.858;2024-02-28T01:57:47;23.23;;;13.90;;
1000;SDS011;489;47.806;12.858;2024-02-28T01:59:50;19.47;;;13.03;;
1000;SDS011;489;47.806;12.858;2024-02-28T02:01:53;22.03;;;13.97;;
1000;SDS011;489;47.806;12.858;2024-02-28T02:03:55;19.77;;;11.63;;
1000;SDS011;489;47.806;12.858;2024-02-28T02:05:57;19.23;;;12.50;;
1000;SDS011;489;47.806;12.858;2024-02-28T02:07:59;18.83;;;11.93;;
1000;SDS011;489;47.806;12.858;2024-02-28T02:10:02;19.70;;;13.00;;
1000;SDS011;489;47.806;12.858;2024-02-28T02:12:08;18.17;;;12.70;;
1000;SDS011;489;47.806;12.858;2024-02-28T02:14:10;19.53;;;12.50;;
1000;SDS011;489;47.806;12.858;2024-02-28T02:16:12;18.33;;;11.83;;
1000;SDS011;489;47.806;12.858;2024-02-28T02:18:16;15.63;;;11.07;;
1000;SDS011;489;47.806;12.858;2024-02-28T02:20:18;17.40;;;12.03;;
1000;SDS011;489;47.806;12.858;2024-02-28T02:22:22;20.17;;;12.67;;
1000;SDS011;489;47.806;12.858;2024-02-28T02:24:26;20.43;;;12.43;;
1000;SDS011;489;47.806;12.858;2024-02-28T02:26:28;19.63;;;12.63;;
1000;SDS011;489;47.806;12.858;2024-02-28T02:28:30;18.63;;;12.00;;
1000;SDS011;489;47.806;12.858;2024-02-28T02:30:32;18.93;;;11.87;;
1000;SDS011;489;47.806;12.858;2024-02-28T02:32:34;20.17;;;13.03;;
1000;SDS011;489;47.806;12.858;2024-02-28T02:34:36;18.47;;;13.00;;
1000;SDS011;489;47.806;12.858;2024-02-28T02:36:38;17.27;;;12.37;;
1000;SDS011;489;47.806;12.858;2024-02-28T02:38:40;19.33;;;13.07;;
1000;SDS011;489;47.806;12.858;2024-02-28T02:40:44;20.23;;;12.37;;
1000;SDS011;489;47.806;12.858;2024-02-28T02:42:50;19.93;;;12.10;;
1000;SDS011;489;47.806;12.858;2024-02-28T02:44:51;16.40;;;12.10;;
1000;SDS011;489;47.806;12.858;2024-02-28T02:46:53;20.83;;;12.53;;
1000;SDS011;489;47.806;12.858;2024-02-28T02:48:55;18.10;;;11.83;;
1000;SDS011;489;47.806;12.858;2024-02-28T02:50:57;18.83;;;11.73;;
1000;SDS011;489;47.806;12.858;2024-02-28T02:52:58;16.97;;;11.37;;
1000;SDS011;489;47.806;12.858;2024-02-28T02:55:00;19.43;;;12.20;;
1000;SDS011;489;47.806;12.858;2024-02-28T02:57:02;17.50;;;12.47;;
1000;SDS011;489;47.806;12.858;2024-02-28T02:59:05;17.40;;;11.37;;
1000;SDS011;489;47.806;12.858;2024-02-28T03:01:06;18.60;;;11.47;;
1000;SDS011;489;47.806;12.858;2024-02-28T03:03:09;22.13;;;13.37;;
1000;SDS011;489;47.806;12.858;2024-02-28T03:05:10;20.20;;;13.17;;
1000;SDS011;489;47.806;12.858;2024-02-28T03:07:12;16.80;;;11.37;;
1000;SDS011;489;47.806;12.858;2024-02-28T03:09:15;19.70;;;12.23;;
1000;SDS011;489;47.806;12.858;2024-02-28T03:11:17;23.20;;;13.00;;
1000;SDS011;489;47.806;12.858;2024-02-28T03:13:20;19.60;;;12.30;;
1000;SDS011;489;47.806;12.858;2024-02-28T03:15:23;17.80;;;12.40;;
1000;SDS011;489;47.806;12.858;2024-02-28T03:17:25;21.10;;;13.43;;
1000;SDS011;489;47.806;12.858;2024-02-28T03:19:27;17.93;;;12.73;;
1000;SDS011;489;47.806;12.858;2024-02-28T03:21:29;17.70;;;13.40;;
1000;SDS011;489;47.806;12.858;2024-02-28T03:23:31;17.07;;;11.90;;
1000;SDS011;489;47.806;12.858;2024-02-28T03:25:36;22.50;;;12.27;;
1000;SDS011;489;47.806;12.858;2024-02-28T03:27:38;18.70;;;11.43;;
1000;SDS011;489;47.806;12.858;2024-02-28T03:29:41;19.53;;;12.07;;
1000;SDS011;489;47.806;12.858;2024-02-28T03:31:43;19.17;;;12.67;;
1000;SDS011;489;47.806;12.858;2024-02-28T03:33:45;16.10;;;11.87;;
1000;SDS011;489;47.806;12.858;2024-02-28T03:35:47;21.90;;;14.03;;
1000;SDS011;489;47.806;12.858;2024-02-28T03:37:49;20.03;;;12.77;;
1000;SDS011;489;47.806;12.858;2024-02-28T03:39:51;18.93;;;12.53;;
1000;SDS011;489;47.806;12.858;2024-02-28T03:41:53;15.83;;;11.07;;
1000;SDS011;489;47.806;12.858;2024-02-28T03:43:55;18.80;;;12.00;;
1000;SDS011;489;47.806;12.858;2024-02-28T03:45:58;17.37;;;11.37;;
1000;SDS011;489;47.806;12.858;2024-02-28T03:48:00;19.17;;;12.50;;
1000;SDS011;489;47.806;12.858;2024-02-28T03:50:00;19.67;;;13.27;;
1000;SDS011;489;47.806;12.858;2024-02-28T03:52:04;21.47;;;13.07;;
1000;SDS011;489;47.806;12.858;2024-02-28T03:54:06;18.50;;;12.07;;
1000;SDS011;489;47.806;12.858;2024-02-28T03:56:09;18.43;;;11.90;;
1000;SDS011;489;47.806;12.858;2024-02-28T03:58:12;19.87;;;11.80;;
1000;SDS011;489;47.806;12.858;2024-02-28T04:00:13;19.03;;;12.83;;
1000;SDS011;489;47.806;12.858;2024-02-28T04:02:16;21.20;;;12.90;;
1000;SDS011;489;47.806;12.858;2024-02-28T04:04:18;18.40;;;13.23;;
1000;SDS011;489;47.806;12.858;2024-02-28T04:06:20;17.20;;;12.27;;
1000;SDS011;489;47.806;12.858;2024-02-28T04:08:22;18.53;;;11.90;;
1000;SDS011;489;47.806;12.858;2024-02-28T04:10:24;18.53;;;13.07;;
1000;SDS011;489;47.806;12.858;2024-02-28T04:12:25;20.13;;;13.13;;
1000;SDS011;489;47.806;12.858;2024-02-28T04:14:26;18.83;;;12.27;;
1000;SDS011;489;47.806;12.858;2024-02-28T04:16:28;17.20;;;12.60;;
1000;SDS011;489;47.806;12.858;2024-02-28T04:18:32;19.10;;;11.93;;
1000;SDS011;489;47.806;12.858;2024-02-28T04:20:34;21.40;;;13.03;;
1000;SDS011;489;47.806;12.858;2024-02-28T04:22:36;19.30;;;12.50;;
1000;SDS011;489;47.806;12.858;2024-02-28T04:24:37;21.17;;;13.23;;
1000;SDS011;489;47.806;12.858;2024-02-28T04:26:39;17.13;;;11.70;;
1000;SDS011;489;47.806;12.858;2024-02-28T04:28:40;18.03;;;12.40;;
1000;SDS011;489;47.806;12.858;2024-02-28T04:30:43;19.77;;;12.07;;
1000;SDS011;489;47.806;12.858;2024-02-28T04:32:45;16.30;;;11.93;;
1000;SDS011;489;47.806;12.858;2024-02-28T04:34:48;20.20;;;12.27;;
1000;SDS011;489;47.806;12.858;2024-02-28T04:36:50;16.03;;;11.17;;
1000;SDS011;489;47.806;12.858;2024-02-28T04:38:52;16.63;;;11.90;;
1000;SDS011;489;47.806;12.858;2024-02-28T04:40:54;19.90;;;11.80;;
1000;SDS011;489;47.806;12.858;2024-02-28T04:42:55;19.07;;;12.63;;
1000;SDS011;489;47.806;12.858;2024-02-28T04:44:57;18.33;;;12.13;;
1000;SDS011;489;47.806;12.858;2024-02-28T04:46:59;17.10;;;10.77;;
1000;SDS011;489;47.806;12.858;2024-02-28T04:49:01;19.80;;;12.00;;
1000;SDS011;489;47.806;12.858;2024-02-28T04:51:05;16.67;;;11.80;;
1000;SDS011;489;47.806;12.858;2024-02-28T04:53:07;15.80;;;11.27;;
1000;SDS011;489;47.806;12.858;2024-02-28T04:55:09;19.97;;;13.60;;
1000;SDS011;489;47.806;12.858;2024-02-28T04:57:10;17.87;;;12.80;;
1000;SDS011;489;47.806;12.858;2024-02-28T04:59:12;18.33;;;12.50;;
1000;SDS011;489;47.806;12.858;2024-02-28T05:01:14;17.13;;;12.47;;
1000;SDS011;489;47.806;12.858;2024-02-28T05:03:16;18.83;;;12.13;;
1000;SDS011;489;47.806;12.858;2024-02-28T05:05:18;18.40;;;13.43;;
1000;SDS011;489;47.806;12.858;2024-02-28T05:07:21;20.00;;;13.00;;
1000;SDS011;489;47.806;12.858;2024-02-28T05:09:23;18.80;;;12.43;;
1000;SDS011;489;47.806;12.858;2024-02-28T05:11:24;26.20;;;17.20;;
1000;SDS011;489;47.806;12.858;2024-02-28T05:13:26;24.30;;;17.20;;
1000;SDS011;489;47.806;12.858;2024-02-28T05:15:28;21.07;;;15.20;;
1000;SDS011;489;47.806;12.858;2024-02-28T05:17:30;23.67;;;16.53;;
1000;SDS011;489;47.806;12.858;2024-02-28T05:19:32;25.43;;;16.33;;
1000;SDS011;489;47.806;12.858;2024-02-28T05:21:39;21.57;;;15.60;;
1000;SDS011;489;47.806;12.858;2024-02-28T05:23:42;18.00;;;13.50;;
1000;SDS011;489;47.806;12.858;2024-02-28T05:25:45;19.43;;;13.10;;
1000;SDS011;489;47.806;12.858;2024-02-28T05:27:48;17.47;;;13.70;;
1000;SDS011;489;47.806;12.858;2024-02-28T05:29:50;22.63;;;14.73;;
1000;SDS011;489;47.806;12.858;2024-02-28T05:31:51;18.77;;;13.60;;
1000;SDS011;489;47.806;12.858;2024-02-28T05:33:53;19.60;;;13.30;;
1000;SDS011;489;47.806;12.858;2024-02-28T05:35:56;19.20;;;13.80;;
1000;SDS011;489;47.806;12.858;2024-02-28T05:37:59;18.30;;;13.30;;
1000;SDS011;489;47.806;12.858;2024-02-28T05:40:06;20.60;;;14.43;;
1000;SDS011;489;47.806;12.858;2024-02-28T05:42:09;19.30;;;14.40;;
1000;SDS011;489;47.806;12.858;2024-02-28T05:44:13;23.57;;;14.40;;
1000;SDS011;489;47.806;12.858;2024-02-28T05:46:16;22.87;;;14.13;;
1000;SDS011;489;47.806;12.858;2024-02-28T05:48:18;19.53;;;13.70;;
1000;SDS011;489;47.806;12.858;2024-02-28T05:50:20;21.67;;;14.20;;
1000;SDS011;489;47.806;12.858;2024-02-28T05:52:22;20.33;;;13.37;;
1000;SDS011;489;47.806;12.858;2024-02-28T05:54:25;19.87;;;14.00;;
1000;SDS011;489;47.806;12.858;2024-02-28T05:56:28;16.47;;;11.60;;
1000;SDS011;489;47.806;12.858;2024-02-28T05:58:30;20.63;;;15.00;;
1000;SDS011;489;47.806;12.858;2024-02-28T06:00:33;22.10;;;13.93;;
1000;SDS011;489;47.806;12.858;2024-02-28T06:02:36;19.83;;;13.93;;
1000;SDS011;489;47.806;12.858;2024-02-28T06:04:38;20.60;;;13.20;;
1000;SDS011;489;47.806;12.858;2024-02-28T06:06:40;20.43;;;12.40;;
1000;SDS011;489;47.806;12.858;2024-02-28T06:08:42;18.53;;;12.90;;
1000;SDS011;489;47.806;12.858;2024-02-28T06:10:44;19.10;;;13.00;;
1000;SDS011;489;47.806;12.858;2024-02-28T06:12:48;20.47;;;13.87;;
1000;SDS011;489;47.806;12.858;2024-02-28T06:14:49;16.60;;;11.93;;
1000;SDS011;489;47.806;12.858;2024-02-28T06:16:51;17.07;;;12.50;;
1000;SDS011;489;47.806;12.858;2024-02-28T06:18:53;20.50;;;12.90;;
1000;SDS011;489;47.806;12.858;2024-02-28T06:20:55;16.90;;;12.83;;
1000;SDS011;489;47.806;12.858;2024-02-28T06:22:57;16.00;;;12.17;;
1000;SDS011;489;47.806;12.858;2024-02-28T06:24:59;16.93;;;11.53;;
1000;SDS011;489;47.806;12.858;2024-02-28T06:27:01;20.27;;;13.63;;
1000;SDS011;489;47.806;12.858;2024-02-28T06:29:06;17.77;;;12.50;;
1000;SDS011;489;47.806;12.858;2024-02-28T06:31:11;17.60;;;12.40;;
1000;SDS011;489;47.806;12.858;2024-02-28T06:33:14;19.00;;;11.93;;
1000;SDS011;489;47.806;12.858;2024-02-28T06:35:16;16.77;;;11.53;;
1000;SDS011;489;47.806;12.858;2024-02-28T06:37:18;15.37;;;11.57;;
1000;SDS011;489;47.806;12.858;2024-02-28T06:39:20;17.60;;;12.20;;
1000;SDS011;489;47.806;12.858;2024-02-28T06:41:22;17.00;;;12.23;;
1000;SDS011;489;47.806;12.858;2024-02-28T06:43:24;14.03;;;11.00;;
1000;SDS011;489;47.806;12.858;2024-02-28T06:45:27;15.10;;;11.70;;
1000;SDS011;489;47.806;12.858;2024-02-28T06:47:29;14.93;;;11.40;;
1000;SDS011;489;47.806;12.858;2024-02-28T06:49:32;18.93;;;12.80;;
1000;SDS011;489;47.806;12.858;2024-02-28T06:51:34;16.70;;;11.23;;
1000;SDS011;489;47.806;12.858;2024-02-28T06:53:37;15.83;;;11.27;;
1000;SDS011;489;47.806;12.858;2024-02-28T06:55:38;18.50;;;12.87;;
1000;SDS011;489;47.806;12.858;2024-02-28T06:57:41;20.20;;;12.93;;
1000;SDS011;489;47.806;12.858;2024-02-28T06:59:43;17.60;;;11.83;;
1000;SDS011;489;47.806;12.858;2024-02-28T07:01:46;16.00;;;11.37;;
1000;SDS011;489;47.806;12.858;2024-02-28T07:03:48;17.10;;;12.47;;
1000;SDS011;489;47.806;12.858;2024-02-28T07:05:51;18.40;;;11.70;;
1000;SDS011;489;47.806;12.858;2024-02-28T07:07:53;14.33;;;10.87;;
1000;SDS011;489;47.806;12.858;2024-02-28T07:09:56;17.73;;;11.50;;
1000;SDS011;489;47.806;12.858;2024-02-28T07:11:58;18.40;;;12.83;;
1000;SDS011;489;47.806;12.858;2024-02-28T07:14:01;17.67;;;11.97;;
1000;SDS011;489;47.806;12.858;2024-02-28T07:16:03;19.07;;;13.63;;
1000;SDS011;489;47.806;12.858;2024-02-28T07:18:06;19.37;;;12.93;;
1000;SDS011;489;47.806;12.858;2024-02-28T07:20:09;17.20;;;12.27;;
1000;SDS011;489;47.806;12.858;2024-02-28T07:22:12;17.07;;;12.07;;
1000;SDS011;489;47.806;12.858;2024-02-28T07:24:14;17.90;;;11.47;;
1000;SDS011;489;47.806;12.858;2024-02-28T07:26:17;16.10;;;12.27;;
1000;SDS011;489;47.806;12.858;2024-02-28T07:28:19;16.87;;;12.50;;
1000;SDS011;489;47.806;12.858;2024-02-28T07:30:21;15.97;;;12.10;;
1000;SDS011;489;47.806;12.858;2024-02-28T07:32:23;16.43;;;12.07;;
1000;SDS011;489;47.806;12.858;2024-02-28T07:34:26;18.27;;;13.00;;
1000;SDS011;489;47.806;12.858;2024-02-28T07:36:28;21.80;;;13.93;;
1000;SDS011;489;47.806;12.858;2024-02-28T07:38:30;17.93;;;12.90;;
1000;SDS011;489;47.806;12.858;2024-02-28T07:40:33;19.33;;;13.70;;
1000;SDS011;489;47.806;12.858;2024-02-28T07:42:35;17.50;;;12.53;;
1000;SDS011;489;47.806;12.858;2024-02-28T07:44:37;16.77;;;13.40;;
1000;SDS011;489;47.806;12.858;2024-02-28T07:46:40;20.30;;;14.60;;
1000;SDS011;489;47.806;12.858;2024-02-28T07:48:43;23.00;;;17.73;;
1000;SDS011;489;47.806;12.858;2024-02-28T07:50:46;20.77;;;15.50;;
1000;SDS011;489;47.806;12.858;2024-02-28T07:52:48;18.90;;;15.27;;
1000;SDS011;489;47.806;12.858;2024-02-28T07:54:51;20.57;;;14.77;;
1000;SDS011;489;47.806;12.858;2024-02-28T07:56:53;20.97;;;14.20;;
1000;SDS011;489;47.806;12.858;2024-02-28T07:58:55;18.40;;;13.63;;
1000;SDS011;489;47.806;12.858;2024-02-28T08:00:57;21.30;;;14.27;;
1000;SDS011;489;47.806;12.858;2024-02-28T08:02:59;23.13;;;15.50;;
1000;SDS011;489;47.806;12.858;2024-02-28T08:05:00;20.13;;;14.30;;
1000;SDS011;489;47.806;12.858;2024-02-28T08:07:03;20.17;;;14.20;;
1000;SDS011;489;47.806;12.858;2024-02-28T08:09:05;19.20;;;14.90;;
1000;SDS011;489;47.806;12.858;2024-02-28T08:11:08;17.10;;;12.87;;
1000;SDS011;489;47.806;12.858;2024-02-28T08:13:10;18.90;;;15.00;;
1000;SDS011;489;47.806;12.858;2024-02-28T08:15:12;19.90;;;14.07;;
1000;SDS011;489;47.806;12.858;2024-02-28T08:17:16;18.30;;;13.43;;
1000;SDS011;489;47.806;12.858;2024-02-28T08:19:18;18.73;;;14.10;;
1000;SDS011;489;47.806;12.858;2024-02-28T08:21:20;19.90;;;13.70;;
1000;SDS011;489;47.806;12.858;2024-02-28T08:23:24;19.87;;;14.13;;
1000;SDS011;489;47.806;12.858;2024-02-28T08:25:26;21.27;;;13.50;;
1000;SDS011;489;47.806;12.858;2024-02-28T08:27:28;20.97;;;14.43;;
1000;SDS011;489;47.806;12.858;2024-02-28T08:29:30;19.10;;;13.40;;
1000;SDS011;489;47.806;12.858;2024-02-28T08:31:33;21.60;;;14.03;;
1000;SDS011;489;47.806;12.858;2024-02-28T08:33:35;16.70;;;12.83;;
1000;SDS011;489;47.806;12.858;2024-02-28T08:35:37;18.93;;;14.20;;
1000;SDS011;489;47.806;12.858;2024-02-28T08:37:38;19.33;;;13.93;;
1000;SDS011;489;47.806;12.858;2024-02-28T08:39:41;18.00;;;14.40;;
1000;SDS011;489;47.806;12.858;2024-02-28T08:41:43;18.20;;;12.87;;
1000;SDS011;489;47.806;12.858;2024-02-28T08:43:45;18.97;;;15.07;;
1000;SDS011;489;47.806;12.858;2024-02-28T08:45:47;17.93;;;13.40;;
1000;SDS011;489;47.806;12.858;2024-02-28T08:47:50;27.27;;;17.30;;
1000;SDS011;489;47.806;12.858;2024-02-28T08:49:53;24.47;;;17.23;;
1000;SDS011;489;47.806;12.858;2024-02-28T08:51:55;20.97;;;15.13;;
1000;SDS011;489;47.806;12.858;2024-02-28T08:53:57;20.07;;;13.77;;
1000;SDS011;489;47.806;12.858;2024-02-28T08:56:02;18.90;;;13.03;;
1000;SDS011;489;47.806;12.858;2024-02-28T08:58:05;18.80;;;13.40;;
1000;SDS011;489;47.806;12.858;2024-02-28T09:00:07;19.40;;;13.87;;
1000;SDS011;489;47.806;12.858;2024-02-28T09:02:10;19.80;;;13.33;;
1000;SDS011;489;47.806;12.858;2024-02-28T09:04:12;19.20;;;13.83;;
1000;SDS011;489;47.806;12.858;2024-02-28T09:06:15;22.40;;;14.53;;
1000;SDS011;489;47.806;12.858;2024-02-28T09:08:16;21.37;;;15.30;;
1000;SDS011;489;47.806;12.858;2024-02-28T09:10:18;18.50;;;14.30;;
1000;SDS011;489;47.806;12.858;2024-02-28T09:12:25;25.00;;;16.93;;
1000;SDS011;489;47.806;12.858;2024-02-28T09:14:27;22.23;;;15.30;;
1000;SDS011;489;47.806;12.858;2024-02-28T09:16:29;21.60;;;14.70;;
1000;SDS011;489;47.806;12.858;2024-02-28T09:18:31;22.07;;;14.60;;
1000;SDS011;489;47.806;12.858;2024-02-28T09:20:52;23.97;;;15.60;;
1000;SDS011;489;47.806;12.858;2024-02-28T09:22:55;21.00;;;14.20;;
1000;SDS011;489;47.806;12.858;2024-02-28T09:24:56;25.40;;;16.70;;
1000;SDS011;489;47.806;12.858;2024-02-28T09:26:57;19.93;;;14.13;;
1000;SDS011;489;47.806;12.858;2024-02-28T09:29:00;25.00;;;15.63;;
1000;SDS011;489;47.806;12.858;2024-02-28T09:31:03;20.23;;;13.63;;
1000;SDS011;489;47.806;12.858;2024-02-28T09:33:04;21.67;;;14.70;;
1000;SDS011;489;47.806;12.858;2024-02-28T09:35:09;23.57;;;16.33;;
1000;SDS011;489;47.806;12.858;2024-02-28T09:37:11;27.00;;;17.00;;
1000;SDS011;489;47.806;12.858;2024-02-28T09:39:13;26.93;;;16.33;;
1000;SDS011;489;47.806;12.858;2024-02-28T09:41:16;22.37;;;16.07;;
1000;SDS011;489;47.806;12.858;2024-02-28T09:43:19;23.43;;;15.40;;
1000;SDS011;489;47.806;12.858;2024-02-28T09:45:27;22.80;;;16.20;;
1000;SDS011;489;47.806;12.858;2024-02-28T09:47:30;24.93;;;15.53;;
1000;SDS011;489;47.806;12.858;2024-02-28T09:49:32;20.63;;;14.70;;
1000;SDS011;489;47.806;12.858;2024-02-28T09:51:37;18.70;;;14.30;;
1000;SDS011;489;47.806;12.858;2024-02-28T09:53:38;18.30;;;14.13;;
1000;SDS011;489;47.806;12.858;2024-02-28T09:55:40;20.83;;;15.30;;
1000;SDS011;489;47.806;12.858;2024-02-28T09:57:42;18.77;;;14.00;;
1000;SDS011;489;47.806;12.858;2024-02-28T09:59:45;20.17;;;14.80;;
1000;SDS011;489;47.806;12.858;2024-02-28T10:01:50;19.10;;;14.33;;
1000;SDS011;489;47.806;12.858;2024-02-28T10:03:55;19.13;;;13.97;;
1000;SDS011;489;47.806;12.858;2024-02-28T10:05:58;20.83;;;15.00;;
1000;SDS011;489;47.806;12.858;2024-02-28T10:08:00;24.83;;;17.10;;
1000;SDS011;489;47.806;12.858;2024-02-28T10:10:02;23.17;;;16.87;;
1000;SDS011;489;47.806;12.858;2024-02-28T10:12:05;23.33;;;16.90;;
1000;SDS011;489;47.806;12.858;2024-02-28T10:14:06;23.00;;;16.20;;
1000;SDS011;489;47.806;12.858;2024-02-28T10:16:09;22.60;;;16.53;;
1000;SDS011;489;47.806;12.858;2024-02-28T10:18:12;22.23;;;15.80;;
1000;SDS011;489;47.806;12.858;2024-02-28T10:20:14;21.80;;;16.00;;
1000;SDS011;489;47.806;12.858;2024-02-28T10:22:16;24.20;;;16.20;;
1000;SDS011;489;47.806;12.858;2024-02-28T10:24:18;24.60;;;16.80;;
1000;SDS011;489;47.806;12.858;2024-02-28T10:26:20;23.10;;;17.43;;
1000;SDS011;489;47.806;12.858;2024-02-28T10:28:22;24.63;;;18.10;;
1000;SDS011;489;47.806;12.858;2024-02-28T10:30:24;22.77;;;17.20;;
1000;SDS011;489;47.806;12.858;2024-02-28T10:32:25;23.57;;;18.10;;
1000;SDS011;489;47.806;12.858;2024-02-28T10:34:29;25.13;;;18.10;;
1000;SDS011;489;47.806;12.858;2024-02-28T10:36:31;24.77;;;18.10;;
1000;SDS011;489;47.806;12.858;2024-02-28T10:38:34;27.30;;;18.67;;
1000;SDS011;489;47.806;12.858;2024-02-28T10:40:36;27.10;;;19.10;;
1000;SDS011;489;47.806;12.858;2024-02-28T10:42:38;29.90;;;19.10;;
1000;SDS011;489;47.806;12.858;2024-02-28T10:44:41;24.70;;;18.60;;
1000;SDS011;489;47.806;12.858;2024-02-28T10:46:43;25.73;;;19.40;;
1000;SDS011;489;47.806;12.858;2024-02-28T10:48:46;25.33;;;18.67;;
1000;SDS011;489;47.806;12.858;2024-02-28T10:50:50;24.90;;;18.50;;
1000;SDS011;489;47.806;12.858;2024-02-28T10:52:52;28.73;;;20.87;;
1000;SDS011;489;47.806;12.858;2024-02-28T10:54:54;32.40;;;22.47;;
1000;SDS011;489;47.806;12.858;2024-02-28T10:56:57;31.53;;;23.13;;
1000;SDS011;489;47.806;12.858;2024-02-28T10:58:59;34.60;;;25.40;;
1000;SDS011;489;47.806;12.858;2024-02-28T11:01:02;34.83;;;25.17;;
1000;SDS011;489;47.806;12.858;2024-02-28T11:03:03;32.17;;;23.63;;
1000;SDS011;489;47.806;12.858;2024-02-28T11:05:06;36.30;;;25.33;;
1000;SDS011;489;47.806;12.858;2024-02-28T11:07:10;32.20;;;22.87;;
1000;SDS011;489;47.806;12.858;2024-02-28T11:09:18;33.27;;;24.77;;
1000;SDS011;489;47.806;12.858;2024-02-28T11:11:21;34.07;;;24.57;;
1000;SDS011;489;47.806;12.858;2024-02-28T11:13:23;31.53;;;23.17;;
1000;SDS011;489;47.806;12.858;2024-02-28T11:15:25;35.17;;;24.53;;
1000;SDS011;489;47.806;12.858;2024-02-28T11:17:27;33.40;;;24.83;;
1000;SDS011;489;47.806;12.858;2024-02-28T11:19:30;28.30;;;22.50;;
1000;SDS011;489;47.806;12.858;2024-02-28T11:21:34;34.73;;;24.20;;
1000;SDS011;489;47.806;12.858;2024-02-28T11:23:38;35.40;;;24.10;;
1000;SDS011;489;47.806;12.858;2024-02-28T11:25:40;34.90;;;24.00;;
1000;SDS011;489;47.806;12.858;2024-02-28T11:27:45;32.40;;;22.57;;
1000;SDS011;489;47.806;12.858;2024-02-28T11:29:48;30.07;;;22.47;;
1000;SDS011;489;47.806;12.858;2024-02-28T11:31:50;35.30;;;25.30;;
1000;SDS011;489;47.806;12.858;2024-02-28T11:33:52;35.60;;;24.50;;
1000;SDS011;489;47.806;12.858;2024-02-28T11:35:55;31.47;;;23.00;;
1000;SDS011;489;47.806;12.858;2024-02-28T11:37:58;33.57;;;24.70;;
1000;SDS011;489;47.806;12.858;2024-02-28T11:40:01;35.57;;;24.30;;
1000;SDS011;489;47.806;12.858;2024-02-28T11:42:10;28.80;;;21.17;;
1000;SDS011;489;47.806;12.858;2024-02-28T11:44:14;24.87;;;18.87;;
1000;SDS011;489;47.806;12.858;2024-02-28T11:46:17;28.03;;;18.47;;
1000;SDS011;489;47.806;12.858;2024-02-28T11:48:19;28.70;;;19.70;;
1000;SDS011;489;47.806;12.858;2024-02-28T11:50:21;23.67;;;17.90;;
1000;SDS011;489;47.806;12.858;2024-02-28T11:52:25;27.37;;;19.87;;
1000;SDS011;489;47.806;12.858;2024-02-28T11:54:26;25.50;;;18.17;;
1000;SDS011;489;47.806;12.858;2024-02-28T11:56:29;27.80;;;18.87;;
1000;SDS011;489;47.806;12.858;2024-02-28T11:58:31;30.40;;;18.50;;
1000;SDS011;489;47.806;12.858;2024-02-28T12:00:33;24.50;;;17.83;;
1000;SDS011;489;47.806;12.858;2024-02-28T12:02:34;24.63;;;18.60;;
1000;SDS011;489;47.806;12.858;2024-02-28T12:04:36;25.30;;;18.03;;
1000;SDS011;489;47.806;12.858;2024-02-28T12:06:38;25.07;;;17.60;;
1000;SDS011;489;47.806;12.858;2024-02-28T12:08:41;24.53;;;17.77;;
1000;SDS011;489;47.806;12.858;2024-02-28T12:10:43;24.37;;;17.63;;
1000;SDS011;489;47.806;12.858;2024-02-28T12:12:47;27.50;;;18.30;;
1000;SDS011;489;47.806;12.858;2024-02-28T12:14:50;30.30;;;19.27;;
1000;SDS011;489;47.806;12.858;2024-02-28T12:17:11;26.80;;;18.17;;
1000;SDS011;489;47.806;12.858;2024-02-28T12:19:13;26.90;;;18.60;;